Time;durP1;ratioP1;P1;durP2;ratioP2;P2;SDS_P1;SDS_P2;PMS_P1;PMS_P2;Temp;Humidity;BMP_temperature;BMP_pressure;BME280_temperature;BME280_humidity;BME280_pressure;Samples;Min_cycle;Max_cycle;Signal;HPM_P1;HPM_P2
2022/10/27 00:00:08;;;;;;;2.83;1.60;;;20.50;99.30;;;;;;6153423;23;45224;-70
2022/10/27 00:02:35;;;;;;;3.80;1.77;;;20.50;99.40;;;;;;6153943;23;45434;-70
2022/10/27 00:05:02;;;;;;;2.03;1.40;;;20.60;99.40;;;;;;6152112;23;48199;-71
2022/10/27 00:07:30;;;;;;;2.28;1.60;;;20.60;99.50;;;;;;6153047;23;45263;-70
2022/10/27 00:09:57;;;;;;;3.25;1.75;;;20.60;99.50;;;;;;6152035;23;45375;-71
2022/10/27 00:12:23;;;;;;;2.67;1.58;;;20.60;99.40;;;;;;6152086;23;45354;-71
2022/10/27 00:14:50;;;;;;;2.92;1.42;;;20.60;99.40;;;;;;6151523;23;46548;-70
2022/10/27 00:17:17;;;;;;;2.03;1.52;;;20.60;99.50;;;;;;6152701;23;45250;-70
2022/10/27 00:19:44;;;;;;;3.00;1.50;;;20.50;99.40;;;;;;6153256;23;45497;-71
2022/10/27 00:22:10;;;;;;;2.58;1.40;;;20.60;99.50;;;;;;6153272;23;45385;-70
2022/10/27 00:24:38;;;;;;;2.03;1.30;;;20.60;99.40;;;;;;6153415;23;46602;-71
2022/10/27 00:27:05;;;;;;;2.33;1.50;;;20.60;99.40;;;;;;6152033;23;45313;-70
2022/10/27 00:29:32;;;;;;;2.45;1.42;;;20.60;99.10;;;;;;6153664;23;45249;-70
2022/10/27 00:31:59;;;;;;;1.95;1.30;;;20.60;99.20;;;;;;6152898;23;45350;-70
2022/10/27 00:34:25;;;;;;;1.88;1.60;;;20.50;99.20;;;;;;6153329;23;45306;-70
2022/10/27 00:36:52;;;;;;;1.83;1.35;;;20.60;99.00;;;;;;6152302;23;45383;-70
2022/10/27 00:39:19;;;;;;;2.40;1.40;;;20.50;98.90;;;;;;6152808;23;45365;-70
2022/10/27 00:41:47;;;;;;;2.85;1.35;;;20.50;98.90;;;;;;6153154;23;45279;-70
2022/10/27 00:44:33;;;;;;;4.10;1.58;;;20.50;98.90;;;;;;6152266;23;47986;-70
2022/10/27 00:47:04;;;;;;;1.92;1.40;;;20.50;99.00;;;;;;6152333;23;45273;-70
2022/10/27 00:49:35;;;;;;;2.00;1.33;;;20.50;99.00;;;;;;6152818;23;45350;-71
2022/10/27 00:52:06;;;;;;;2.10;1.40;;;20.50;98.90;;;;;;6152590;23;45448;-71
2022/10/27 00:54:36;;;;;;;1.95;1.55;;;20.50;98.90;;;;;;6153480;23;46040;-71
2022/10/27 00:57:07;;;;;;;1.73;1.30;;;20.50;99.10;;;;;;6152155;23;45245;-71
2022/10/27 00:59:34;;;;;;;2.30;1.30;;;20.50;99.10;;;;;;6153596;23;45266;-70
2022/10/27 01:02:02;;;;;;;1.95;1.20;;;20.50;99.20;;;;;;6151475;23;45524;-70
2022/10/27 01:04:35;;;;;;;2.13;1.17;;;20.50;99.20;;;;;;6151542;23;47641;-70
2022/10/27 01:07:02;;;;;;;3.13;1.35;;;20.50;99.20;;;;;;6151505;23;45244;-71
2022/10/27 01:09:30;;;;;;;2.33;1.20;;;20.50;99.10;;;;;;6152455;23;45333;-70
2022/10/27 01:11:57;;;;;;;1.60;1.10;;;20.50;99.50;;;;;;6152238;23;45286;-71
2022/10/27 01:14:26;;;;;;;1.90;1.00;;;20.50;99.10;;;;;;6152261;23;45277;-71
2022/10/27 01:17:10;;;;;;;2.60;1.55;;;20.60;99.20;;;;;;6152133;23;45357;-71
2022/10/27 01:19:58;;;;;;;2.80;1.52;;;20.60;99.20;;;;;;6152912;23;45368;-70
2022/10/27 01:22:31;;;;;;;1.55;0.95;;;20.50;99.10;;;;;;6153053;23;45380;-70
2022/10/27 01:25:37;;;;;;;1.52;1.23;;;20.50;98.90;;;;;;6151483;23;45406;-70
2022/10/27 01:28:53;;;;;;;1.92;1.20;;;20.50;98.90;;;;;;6152364;23;45253;-70
2022/10/27 01:31:24;;;;;;;1.88;1.15;;;20.50;98.90;;;;;;6102483;23;45301;-70
2022/10/27 01:33:59;;;;;;;1.73;1.05;;;20.50;98.80;;;;;;6153357;23;45269;-71
2022/10/27 01:36:32;;;;;;;2.40;1.20;;;20.50;98.70;;;;;;6151865;23;45311;-71
2022/10/27 01:39:04;;;;;;;2.10;1.00;;;20.50;98.90;;;;;;6152226;23;45222;-71
2022/10/27 01:41:36;;;;;;;1.38;1.08;;;20.50;98.70;;;;;;6152403;23;45206;-70
2022/10/27 01:44:09;;;;;;;1.63;1.30;;;20.50;98.70;;;;;;6152442;23;45534;-70
2022/10/27 01:46:37;;;;;;;2.13;1.15;;;20.50;98.70;;;;;;6151600;23;47071;-70
2022/10/27 01:49:05;;;;;;;1.92;1.00;;;20.50;98.70;;;;;;6152085;23;45295;-71
2022/10/27 01:51:32;;;;;;;1.50;0.85;;;20.50;98.90;;;;;;6152398;23;45381;-71
2022/10/27 01:53:59;;;;;;;1.95;1.25;;;20.50;98.80;;;;;;6152326;23;45321;-71
2022/10/27 01:56:45;;;;;;;2.92;1.05;;;20.50;98.90;;;;;;6151798;23;45307;-70
2022/10/27 01:59:41;;;;;;;1.45;1.13;;;20.50;98.90;;;;;;6153155;23;45266;-71
2022/10/27 02:02:18;;;;;;;2.15;1.10;;;20.50;98.90;;;;;;6142381;23;45338;-70
2022/10/27 02:04:56;;;;;;;1.80;1.52;;;20.50;98.90;;;;;;6152776;23;45233;-70
2022/10/27 02:07:32;;;;;;;2.08;1.10;;;20.50;98.90;;;;;;6151522;23;46292;-70
2022/10/27 02:10:06;;;;;;;1.27;0.90;;;20.50;98.90;;;;;;6152924;23;45142;-70
2022/10/27 02:12:35;;;;;;;1.38;1.00;;;20.50;98.90;;;;;;6152461;23;45384;-70
2022/10/27 02:15:04;;;;;;;1.40;0.80;;;20.50;98.90;;;;;;6152307;23;45350;-71
2022/10/27 02:17:37;;;;;;;1.02;0.85;;;20.50;98.80;;;;;;6150953;23;47330;-71
2022/10/27 02:20:09;;;;;;;1.88;1.13;;;20.50;98.80;;;;;;6152185;23;45886;-70
2022/10/27 02:22:37;;;;;;;5.03;1.00;;;20.50;98.70;;;;;;6152837;23;45334;-70
2022/10/27 02:25:05;;;;;;;1.98;1.13;;;20.50;98.50;;;;;;6151097;23;45380;-71
2022/10/27 02:27:37;;;;;;;1.73;1.00;;;20.50;98.50;;;;;;6151823;23;45252;-70
2022/10/27 02:30:05;;;;;;;1.45;0.90;;;20.50;98.50;;;;;;6151763;23;45253;-71
2022/10/27 02:32:34;;;;;;;1.48;0.82;;;20.50;98.30;;;;;;6153076;23;45332;-70
2022/10/27 02:35:04;;;;;;;2.08;1.05;;;20.50;98.60;;;;;;6152770;23;45257;-70
2022/10/27 02:37:33;;;;;;;1.55;0.80;;;20.50;98.40;;;;;;6151748;23;47907;-70
2022/10/27 02:40:00;;;;;;;1.70;1.00;;;20.50;98.50;;;;;;6152393;23;45293;-70
2022/10/27 02:42:27;;;;;;;1.33;0.88;;;20.50;98.40;;;;;;6151964;23;45321;-70
2022/10/27 02:44:54;;;;;;;2.75;1.05;;;20.50;98.40;;;;;;6152745;23;45281;-70
2022/10/27 02:47:20;;;;;;;1.63;0.93;;;20.50;98.50;;;;;;6149824;23;46590;-71
2022/10/27 02:49:49;;;;;;;1.23;0.88;;;20.50;98.50;;;;;;6151594;23;45295;-70
2022/10/27 02:52:16;;;;;;;1.60;1.00;;;20.40;98.50;;;;;;6152158;23;45457;-70
2022/10/27 02:54:46;;;;;;;1.58;1.10;;;20.50;98.60;;;;;;6151806;23;45436;-70
2022/10/27 02:57:13;;;;;;;1.70;1.00;;;20.50;98.50;;;;;;6151703;23;45508;-71
2022/10/27 02:59:40;;;;;;;1.08;0.98;;;20.50;98.90;;;;;;6151884;23;45439;-70
2022/10/27 03:02:07;;;;;;;1.45;0.98;;;20.50;98.50;;;;;;6152398;23;45208;-70
2022/10/27 03:04:34;;;;;;;1.23;0.82;;;20.50;98.60;;;;;;6152326;23;45516;-70
2022/10/27 03:07:02;;;;;;;2.53;1.10;;;20.50;98.50;;;;;;6149609;23;45222;-71
2022/10/27 03:09:29;;;;;;;1.38;0.90;;;20.50;98.50;;;;;;6152410;23;46035;-70
2022/10/27 03:11:55;;;;;;;1.73;1.00;;;20.50;98.50;;;;;;6151972;23;45327;-71
2022/10/27 03:14:22;;;;;;;1.50;1.10;;;20.50;98.40;;;;;;6152413;23;45569;-71
2022/10/27 03:16:49;;;;;;;2.13;0.90;;;20.50;98.30;;;;;;6150965;23;46541;-71
2022/10/27 03:19:15;;;;;;;1.85;1.00;;;20.50;98.20;;;;;;6151506;23;45455;-70
2022/10/27 03:21:42;;;;;;;1.02;0.80;;;20.50;98.20;;;;;;6152118;23;45319;-71
2022/10/27 03:24:10;;;;;;;1.38;0.82;;;20.50;98.30;;;;;;6151708;23;45496;-70
2022/10/27 03:26:38;;;;;;;1.30;0.90;;;20.50;98.60;;;;;;6151167;23;47069;-71
2022/10/27 03:29:04;;;;;;;5.38;1.02;;;20.50;98.10;;;;;;6152135;23;45627;-71
2022/10/27 03:31:31;;;;;;;2.08;0.93;;;20.50;98.10;;;;;;6150727;23;45370;-70
2022/10/27 03:33:58;;;;;;;1.52;0.70;;;20.50;98.00;;;;;;6152348;23;45487;-71
2022/10/27 03:36:25;;;;;;;2.08;1.10;;;20.50;98.00;;;;;;6150712;23;47343;-70
2022/10/27 03:38:53;;;;;;;1.13;0.80;;;20.50;97.90;;;;;;6151400;23;45964;-70
2022/10/27 03:41:21;;;;;;;1.67;0.88;;;20.50;97.70;;;;;;6152550;23;45366;-71
2022/10/27 03:43:48;;;;;;;2.00;0.93;;;20.50;97.90;;;;;;6151837;23;45158;-71
2022/10/27 03:46:14;;;;;;;1.33;0.77;;;20.50;98.20;;;;;;6152394;23;46091;-71
2022/10/27 03:48:41;;;;;;;1.67;0.90;;;20.50;98.20;;;;;;6152883;23;45293;-70
2022/10/27 03:51:09;;;;;;;1.15;0.95;;;20.50;98.10;;;;;;6152488;23;45209;-71
2022/10/27 03:53:36;;;;;;;1.27;0.85;;;20.50;98.20;;;;;;6153347;23;45419;-71
2022/10/27 03:56:03;;;;;;;1.17;0.90;;;20.50;98.10;;;;;;6151380;23;46547;-70
2022/10/27 03:58:31;;;;;;;1.60;1.00;;;20.50;97.90;;;;;;6151980;23;45229;-70
2022/10/27 04:01:01;;;;;;;1.70;0.80;;;20.50;97.80;;;;;;6151661;23;45218;-70
2022/10/27 04:03:28;;;;;;;1.30;0.85;;;20.50;97.70;;;;;;6152657;23;45150;-70
2022/10/27 04:05:54;;;;;;;1.10;1.00;;;20.50;97.60;;;;;;6151034;23;45453;-70
2022/10/27 04:08:21;;;;;;;1.80;1.00;;;20.50;97.50;;;;;;6151968;23;45256;-70
2022/10/27 04:10:48;;;;;;;1.63;0.82;;;20.50;97.50;;;;;;6153361;23;45305;-70
2022/10/27 04:13:15;;;;;;;1.77;0.82;;;20.50;97.70;;;;;;6152115;23;45428;-70
2022/10/27 04:15:43;;;;;;;1.02;0.80;;;20.40;97.50;;;;;;6149579;23;46357;-70
2022/10/27 04:18:13;;;;;;;1.40;0.80;;;20.40;97.50;;;;;;6151523;23;45370;-70
2022/10/27 04:20:39;;;;;;;2.85;1.00;;;20.40;97.50;;;;;;6151449;23;45450;-70
2022/10/27 04:23:06;;;;;;;2.90;1.10;;;20.40;97.30;;;;;;6151745;23;45477;-70
2022/10/27 04:25:33;;;;;;;1.85;0.90;;;20.40;97.10;;;;;;6150614;23;46635;-70
2022/10/27 04:28:04;;;;;;;2.20;0.98;;;20.40;96.80;;;;;;6151866;23;45262;-70
2022/10/27 04:30:31;;;;;;;1.70;0.98;;;20.40;96.70;;;;;;6149863;23;45369;-71
2022/10/27 04:32:59;;;;;;;0.90;0.70;;;20.40;96.90;;;;;;6152396;23;45597;-70
2022/10/27 04:35:26;;;;;;;4.15;0.80;;;20.40;96.90;;;;;;6152141;23;45286;-70
2022/10/27 04:37:55;;;;;;;1.25;0.82;;;20.40;96.90;;;;;;6151960;23;45322;-70
2022/10/27 04:40:22;;;;;;;1.00;0.75;;;20.40;97.10;;;;;;6153144;23;45301;-70
2022/10/27 04:42:48;;;;;;;1.48;1.10;;;20.40;97.20;;;;;;6152449;23;45272;-70
2022/10/27 04:45:16;;;;;;;1.48;0.95;;;20.50;97.30;;;;;;6152802;23;46246;-70
2022/10/27 04:47:44;;;;;;;1.00;0.80;;;20.50;97.30;;;;;;6153436;23;45281;-71
2022/10/27 04:50:12;;;;;;;1.17;0.85;;;20.50;97.40;;;;;;6150602;23;45309;-70
2022/10/27 04:52:39;;;;;;;1.17;0.90;;;20.50;97.30;;;;;;6153427;23;45558;-70
2022/10/27 04:55:07;;;;;;;1.58;0.70;;;20.40;97.60;;;;;;6152155;23;46267;-70
2022/10/27 04:57:35;;;;;;;1.60;0.90;;;20.50;97.30;;;;;;6152018;23;45250;-70
2022/10/27 05:00:02;;;;;;;1.33;0.80;;;20.50;97.40;;;;;;6152979;23;45281;-71
2022/10/27 05:02:28;;;;;;;1.23;0.85;;;20.50;97.30;;;;;;6152481;23;45435;-70
2022/10/27 05:04:55;;;;;;;2.20;0.75;;;20.50;97.30;;;;;;6152982;23;46047;-70
2022/10/27 05:07:23;;;;;;;2.08;0.85;;;20.50;97.20;;;;;;6152277;23;45341;-70
2022/10/27 05:09:50;;;;;;;1.77;0.90;;;20.50;97.00;;;;;;6152397;23;45362;-71
2022/10/27 05:12:17;;;;;;;1.45;0.85;;;20.50;97.20;;;;;;6152986;23;45231;-70
2022/10/27 05:14:44;;;;;;;1.38;0.80;;;20.50;97.00;;;;;;6152265;23;47074;-71
2022/10/27 05:17:10;;;;;;;1.50;0.80;;;20.50;97.00;;;;;;6152104;23;45420;-71
2022/10/27 05:19:37;;;;;;;1.52;0.88;;;20.50;97.00;;;;;;6152803;23;45377;-70
2022/10/27 05:22:04;;;;;;;1.13;0.80;;;20.50;97.00;;;;;;6152247;23;45508;-70
2022/10/27 05:24:32;;;;;;;1.50;0.95;;;20.50;97.00;;;;;;6152495;23;45417;-70
2022/10/27 05:26:59;;;;;;;0.95;0.60;;;20.50;96.90;;;;;;6150359;23;45715;-71
2022/10/27 05:29:25;;;;;;;0.98;0.82;;;20.50;96.90;;;;;;6152336;23;45409;-70
2022/10/27 05:31:54;;;;;;;1.13;0.70;;;20.50;97.10;;;;;;6152970;23;45489;-70
2022/10/27 05:34:20;;;;;;;2.05;0.70;;;20.50;97.30;;;;;;6150931;23;48645;-71
2022/10/27 05:36:47;;;;;;;1.05;0.63;;;20.50;97.00;;;;;;6152079;23;45194;-70
2022/10/27 05:39:14;;;;;;;4.43;0.90;;;20.50;97.00;;;;;;6152879;23;45197;-71
2022/10/27 05:41:42;;;;;;;1.23;0.82;;;20.50;97.50;;;;;;6152096;23;45226;-70
2022/10/27 05:44:09;;;;;;;0.73;0.60;;;20.50;97.20;;;;;;6152742;23;45254;-70
2022/10/27 05:46:36;;;;;;;0.88;0.70;;;20.50;97.20;;;;;;6151652;23;45384;-71
2022/10/27 05:49:02;;;;;;;1.35;0.73;;;20.50;97.20;;;;;;6153018;23;45321;-70
2022/10/27 05:51:29;;;;;;;1.63;0.73;;;20.50;97.20;;;;;;6151399;23;45346;-70
2022/10/27 05:53:56;;;;;;;1.02;0.80;;;20.50;97.10;;;;;;6151372;23;46602;-70
2022/10/27 05:56:23;;;;;;;1.20;0.73;;;20.50;97.10;;;;;;6152202;23;45254;-71
2022/10/27 05:58:51;;;;;;;1.38;0.70;;;20.50;97.10;;;;;;6152646;23;45313;-70
2022/10/27 06:01:18;;;;;;;0.80;0.60;;;20.50;97.00;;;;;;6152685;23;45404;-70
2022/10/27 06:03:45;;;;;;;0.93;0.65;;;20.50;97.00;;;;;;6152941;23;48386;-70
2022/10/27 06:06:11;;;;;;;1.40;0.98;;;20.50;97.00;;;;;;6151075;23;45217;-70
2022/10/27 06:08:38;;;;;;;0.90;0.60;;;20.50;96.80;;;;;;6151845;23;45255;-70
2022/10/27 06:11:05;;;;;;;0.82;0.80;;;20.50;96.80;;;;;;6152706;23;45265;-71
2022/10/27 06:13:32;;;;;;;0.88;0.60;;;20.50;96.80;;;;;;6151767;23;46593;-71
2022/10/27 06:16:00;;;;;;;1.17;0.82;;;20.50;96.80;;;;;;6151989;23;45278;-70
2022/10/27 06:18:27;;;;;;;1.63;0.80;;;20.50;96.70;;;;;;6151778;23;45269;-70
2022/10/27 06:20:54;;;;;;;1.75;0.95;;;20.50;96.80;;;;;;6152153;23;45194;-70
2022/10/27 06:23:20;;;;;;;1.52;0.70;;;20.50;96.70;;;;;;6152417;23;46264;-70
2022/10/27 06:25:47;;;;;;;0.82;0.60;;;20.50;96.60;;;;;;6151407;23;45414;-70
2022/10/27 06:28:14;;;;;;;1.95;0.50;;;20.40;97.00;;;;;;6152799;23;45362;-70
2022/10/27 06:30:41;;;;;;;0.65;0.60;;;20.50;96.80;;;;;;6151202;23;45189;-70
2022/10/27 06:33:09;;;;;;;1.95;0.80;;;20.50;96.70;;;;;;6151050;23;47086;-70
2022/10/27 06:35:36;;;;;;;1.38;1.00;;;20.50;96.90;;;;;;6152043;23;45277;-71
2022/10/27 06:38:02;;;;;;;1.15;0.88;;;20.50;96.80;;;;;;6151899;23;45235;-70
2022/10/27 06:40:29;;;;;;;0.95;0.65;;;20.50;96.70;;;;;;6152223;23;45569;-70
2022/10/27 06:42:56;;;;;;;1.05;0.65;;;20.50;96.90;;;;;;6151148;23;47503;-71
2022/10/27 06:45:23;;;;;;;0.93;0.50;;;20.50;96.80;;;;;;6150734;23;45336;-71
2022/10/27 06:47:58;;;;;;;1.15;0.63;;;20.50;96.80;;;;;;6151411;23;45434;-71
2022/10/27 06:50:26;;;;;;;0.65;0.50;;;20.50;96.90;;;;;;6150089;23;45454;-71
2022/10/27 06:52:53;;;;;;;0.90;0.80;;;20.50;96.80;;;;;;6153977;23;45459;-70
2022/10/27 06:55:20;;;;;;;1.80;0.90;;;20.50;96.80;;;;;;6152087;23;45732;-70
2022/10/27 06:57:47;;;;;;;1.15;0.70;;;20.50;96.70;;;;;;6150628;23;45362;-70
2022/10/27 07:00:14;;;;;;;1.38;0.77;;;20.50;96.80;;;;;;6152360;23;45267;-70
2022/10/27 07:02:41;;;;;;;0.45;0.38;;;20.50;96.80;;;;;;6150116;23;46557;-70
2022/10/27 07:05:09;;;;;;;1.65;0.50;;;20.40;96.60;;;;;;6151329;23;45297;-70
2022/10/27 07:07:37;;;;;;;1.70;0.68;;;20.50;96.70;;;;;;6151099;23;45372;-70
2022/10/27 07:10:08;;;;;;;3.05;0.80;;;20.50;96.60;;;;;;6147440;23;45289;-71
2022/10/27 07:12:34;;;;;;;2.50;0.47;;;20.40;96.70;;;;;;6150878;23;48015;-71
2022/10/27 07:15:01;;;;;;;0.75;0.60;;;20.40;96.60;;;;;;6151404;23;45849;-70
2022/10/27 07:17:28;;;;;;;0.80;0.60;;;20.40;96.50;;;;;;6150062;23;45517;-70
2022/10/27 07:19:55;;;;;;;1.23;0.68;;;20.40;96.50;;;;;;6152516;23;45254;-71
2022/10/27 07:22:22;;;;;;;1.55;0.50;;;20.50;96.50;;;;;;6152229;23;47446;-70
2022/10/27 07:24:50;;;;;;;1.33;0.68;;;20.40;96.50;;;;;;6153118;23;45390;-70
2022/10/27 07:27:16;;;;;;;1.20;0.77;;;20.40;96.50;;;;;;6152971;23;45214;-70
2022/10/27 07:29:43;;;;;;;1.33;0.70;;;20.40;96.50;;;;;;6152204;23;45542;-72
2022/10/27 07:32:10;;;;;;;5.03;0.70;;;20.40;96.50;;;;;;6153385;23;47013;-70
2022/10/27 07:34:37;;;;;;;1.80;0.88;;;20.50;96.60;;;;;;6152022;23;45303;-69
2022/10/27 07:37:03;;;;;;;3.47;0.95;;;20.50;96.60;;;;;;6152301;23;45274;-70
2022/10/27 07:39:30;;;;;;;3.53;0.70;;;20.50;96.60;;;;;;6153121;23;45238;-70
2022/10/27 07:41:58;;;;;;;1.92;0.88;;;20.40;96.60;;;;;;6152419;23;47071;-70
2022/10/27 07:44:25;;;;;;;2.22;0.73;;;20.40;96.60;;;;;;6152641;23;45300;-71
2022/10/27 07:46:53;;;;;;;1.20;0.60;;;20.40;96.60;;;;;;6152202;23;45310;-70
2022/10/27 07:49:19;;;;;;;2.08;0.77;;;20.40;96.50;;;;;;6152785;23;45388;-70
2022/10/27 07:51:46;;;;;;;1.02;0.80;;;20.40;96.30;;;;;;6152847;23;48114;-70
2022/10/27 07:54:13;;;;;;;1.80;0.80;;;20.50;96.30;;;;;;6151118;23;45453;-70
2022/10/27 07:56:41;;;;;;;2.25;0.80;;;20.50;96.20;;;;;;6152966;23;45282;-70
2022/10/27 07:59:09;;;;;;;0.93;0.50;;;20.50;96.10;;;;;;6150869;23;45383;-70
2022/10/27 08:01:35;;;;;;;0.75;0.60;;;20.50;95.90;;;;;;6152814;23;48254;-70
2022/10/27 08:04:02;;;;;;;1.30;0.70;;;20.50;95.80;;;;;;6153001;23;45198;-70
2022/10/27 08:06:29;;;;;;;5.65;0.90;;;20.50;95.80;;;;;;6151719;23;45334;-70
2022/10/27 08:08:56;;;;;;;1.95;0.60;;;20.50;95.80;;;;;;6150240;23;45482;-69
2022/10/27 08:11:23;;;;;;;0.63;0.60;;;20.40;95.80;;;;;;6152783;23;47904;-70
2022/10/27 08:13:51;;;;;;;1.20;0.70;;;20.40;95.90;;;;;;6152856;23;45296;-70
2022/10/27 08:16:19;;;;;;;1.63;0.68;;;20.50;95.80;;;;;;6151891;23;45406;-70
2022/10/27 08:18:46;;;;;;;1.30;0.73;;;20.50;95.80;;;;;;6152793;23;45307;-70
2022/10/27 08:21:12;;;;;;;0.77;0.50;;;20.50;95.80;;;;;;6152648;23;47165;-70
2022/10/27 08:23:40;;;;;;;1.23;0.63;;;20.50;95.70;;;;;;6153163;23;45298;-70
2022/10/27 08:26:07;;;;;;;0.77;0.57;;;20.50;96.00;;;;;;6152157;23;45495;-71
2022/10/27 08:28:34;;;;;;;2.60;0.70;;;20.50;95.50;;;;;;6153426;23;45425;-71
2022/10/27 08:31:00;;;;;;;0.82;0.57;;;20.50;95.40;;;;;;6147808;23;47543;-70
2022/10/27 08:33:28;;;;;;;0.88;0.68;;;20.50;95.40;;;;;;6154669;23;45415;-70
2022/10/27 08:35:55;;;;;;;1.35;0.80;;;20.50;95.20;;;;;;6152452;23;45202;-70
2022/10/27 08:38:22;;;;;;;1.63;0.52;;;20.50;95.20;;;;;;6152668;23;45520;-70
2022/10/27 08:41:02;;;;;;;0.80;0.60;;;20.60;95.20;;;;;;6153324;23;48023;-70
2022/10/27 08:43:49;;;;;;;1.20;0.73;;;20.60;95.50;;;;;;6152391;23;45269;-70
2022/10/27 08:46:23;;;;;;;1.02;0.50;;;20.60;95.10;;;;;;6147919;23;45589;-70
2022/10/27 08:48:57;;;;;;;1.10;0.50;;;20.60;95.10;;;;;;6152887;23;45337;-70
2022/10/27 08:51:28;;;;;;;1.17;0.60;;;20.60;95.00;;;;;;6153162;23;45300;-70
2022/10/27 08:53:55;;;;;;;1.30;0.60;;;20.60;95.10;;;;;;6152582;23;45266;-70
2022/10/27 08:56:26;;;;;;;0.60;0.50;;;20.60;95.10;;;;;;6151923;23;45365;-70
2022/10/27 08:58:53;;;;;;;1.23;0.60;;;20.60;95.10;;;;;;6152438;23;45345;-70
2022/10/27 09:01:27;;;;;;;0.88;0.70;;;20.60;95.10;;;;;;6151935;23;45296;-70
2022/10/27 09:04:19;;;;;;;0.70;0.47;;;20.60;95.10;;;;;;6153109;23;45248;-70
2022/10/27 09:06:59;;;;;;;1.85;0.70;;;20.60;95.10;;;;;;6151941;23;45187;-70
2022/10/27 09:09:30;;;;;;;1.05;0.70;;;20.60;95.10;;;;;;6151230;23;45198;-70
2022/10/27 09:12:09;;;;;;;1.73;0.73;;;20.60;95.10;;;;;;6152747;23;45232;-70
2022/10/27 09:15:00;;;;;;;0.80;0.68;;;20.60;95.10;;;;;;6152530;23;45340;-70
2022/10/27 09:17:30;;;;;;;1.25;0.50;;;20.70;95.10;;;;;;6152929;23;45298;-70
2022/10/27 09:20:04;;;;;;;0.68;0.60;;;20.70;95.10;;;;;;6152665;23;45480;-70
2022/10/27 09:22:34;;;;;;;1.02;0.60;;;20.70;95.10;;;;;;6152956;23;45286;-71
2022/10/27 09:25:04;;;;;;;0.88;0.60;;;20.60;95.00;;;;;;6153023;23;45908;-70
2022/10/27 09:27:32;;;;;;;1.17;0.77;;;20.70;95.00;;;;;;6152372;23;45353;-70
2022/10/27 09:30:04;;;;;;;0.40;0.40;;;20.70;94.90;;;;;;6153266;23;45362;-70
2022/10/27 09:32:34;;;;;;;1.92;0.60;;;20.70;94.90;;;;;;6152430;23;47354;-70
2022/10/27 09:35:07;;;;;;;0.52;0.52;;;20.70;94.90;;;;;;6153209;23;45266;-70
2022/10/27 09:37:39;;;;;;;0.90;0.63;;;20.70;94.80;;;;;;6151779;23;45292;-69
2022/10/27 09:40:12;;;;;;;1.25;0.70;;;20.70;94.90;;;;;;6153318;23;45432;-70
2022/10/27 09:42:39;;;;;;;0.90;0.60;;;20.70;94.80;;;;;;6152799;23;45294;-70
2022/10/27 09:45:14;;;;;;;0.90;0.50;;;20.70;94.60;;;;;;6152641;23;45388;-69
2022/10/27 09:47:42;;;;;;;0.68;0.40;;;20.70;94.40;;;;;;6152530;23;45243;-70
2022/10/27 09:50:18;;;;;;;0.70;0.50;;;20.70;94.50;;;;;;6152330;23;45265;-70
2022/10/27 09:52:45;;;;;;;1.23;0.60;;;20.70;94.70;;;;;;6152711;23;46409;-69
2022/10/27 09:55:12;;;;;;;0.65;0.57;;;20.70;94.80;;;;;;6152550;23;45269;-70
2022/10/27 09:57:41;;;;;;;1.05;0.65;;;20.70;95.00;;;;;;6150449;23;45389;-70
2022/10/27 10:00:24;;;;;;;1.35;0.60;;;20.70;95.00;;;;;;6153729;23;45458;-70
2022/10/27 10:02:59;;;;;;;1.05;0.57;;;20.70;95.00;;;;;;6152717;23;45345;-70
2022/10/27 10:05:30;;;;;;;2.28;0.50;;;20.70;95.10;;;;;;6152831;23;45430;-71
2022/10/27 10:08:13;;;;;;;1.38;0.93;;;20.70;95.10;;;;;;6151932;23;45286;-70
2022/10/27 10:10:52;;;;;;;0.75;0.40;;;20.70;95.10;;;;;;6153069;23;45458;-70
2022/10/27 10:13:21;;;;;;;0.70;0.50;;;20.60;95.10;;;;;;6152581;23;46506;-70
2022/10/27 10:15:48;;;;;;;1.55;0.60;;;20.60;95.20;;;;;;6149867;23;45316;-70
2022/10/27 10:18:24;;;;;;;1.55;0.63;;;20.60;95.20;;;;;;6152415;23;45342;-70
2022/10/27 10:20:59;;;;;;;1.60;0.50;;;20.60;95.20;;;;;;6151962;23;45551;-69
2022/10/27 10:23:27;;;;;;;1.05;0.57;;;20.60;95.10;;;;;;6152441;23;46251;-70
2022/10/27 10:25:57;;;;;;;1.27;0.52;;;20.60;95.10;;;;;;6151542;23;45190;-70
2022/10/27 10:28:32;;;;;;;0.73;0.60;;;20.60;95.10;;;;;;6152153;23;45217;-70
2022/10/27 10:31:01;;;;;;;1.02;0.52;;;20.70;95.20;;;;;;6153102;23;45206;-70
2022/10/27 10:33:32;;;;;;;1.88;0.60;;;20.70;95.30;;;;;;6151817;23;47316;-69
2022/10/27 10:36:02;;;;;;;1.13;0.68;;;20.70;95.30;;;;;;6152114;23;45422;-70
2022/10/27 10:38:33;;;;;;;0.88;0.50;;;20.70;95.30;;;;;;6151811;23;45315;-69
2022/10/27 10:41:03;;;;;;;1.38;0.70;;;20.60;95.30;;;;;;6152363;23;45251;-70
2022/10/27 10:43:30;;;;;;;0.85;0.50;;;20.70;95.30;;;;;;6151496;23;46584;-70
2022/10/27 10:45:58;;;;;;;0.88;0.60;;;20.70;95.30;;;;;;6151032;23;45389;-70
2022/10/27 10:48:32;;;;;;;1.20;0.68;;;20.70;95.30;;;;;;6152616;23;45392;-70
2022/10/27 10:51:00;;;;;;;1.83;0.50;;;20.60;95.30;;;;;;6151960;23;45341;-69
2022/10/27 10:53:31;;;;;;;0.80;0.40;;;20.70;95.40;;;;;;6151510;23;46095;-69
2022/10/27 10:56:02;;;;;;;0.75;0.40;;;20.70;95.30;;;;;;6151394;23;45332;-70
2022/10/27 10:58:31;;;;;;;1.15;0.40;;;20.60;95.30;;;;;;6151416;23;45261;-69
2022/10/27 11:01:00;;;;;;;1.45;0.70;;;20.60;95.40;;;;;;6152527;23;45358;-70
2022/10/27 11:03:31;;;;;;;0.57;0.43;;;20.70;95.40;;;;;;6151837;23;45324;-70
2022/10/27 11:06:02;;;;;;;0.63;0.50;;;20.70;95.40;;;;;;6151641;23;45374;-70
2022/10/27 11:08:36;;;;;;;0.60;0.50;;;20.60;95.40;;;;;;6152114;23;45384;-70
2022/10/27 11:11:06;;;;;;;0.70;0.40;;;20.60;95.40;;;;;;6152952;23;45143;-70
2022/10/27 11:13:40;;;;;;;0.68;0.47;;;20.70;95.40;;;;;;6151948;23;48187;-70
2022/10/27 11:16:08;;;;;;;0.60;0.40;;;20.60;95.50;;;;;;6151149;23;45329;-69
2022/10/27 11:18:44;;;;;;;1.17;0.40;;;20.60;95.50;;;;;;6152183;23;45323;-69
2022/10/27 11:21:22;;;;;;;1.10;0.50;;;20.70;95.50;;;;;;6151871;23;45334;-69
2022/10/27 11:23:50;;;;;;;0.70;0.50;;;20.70;95.60;;;;;;6151383;23;46370;-69
2022/10/27 11:26:22;;;;;;;0.45;0.40;;;20.70;95.60;;;;;;6150078;23;45338;-70
2022/10/27 11:28:56;;;;;;;0.50;0.32;;;20.70;95.60;;;;;;6152081;23;45182;-70
2022/10/27 11:31:27;;;;;;;1.20;0.45;;;20.70;95.60;;;;;;6152485;23;45399;-69
2022/10/27 11:34:00;;;;;;;0.85;0.47;;;20.70;95.70;;;;;;6151306;23;47074;-70
2022/10/27 11:36:36;;;;;;;1.17;0.65;;;20.70;95.60;;;;;;6151271;23;45335;-70
2022/10/27 11:39:05;;;;;;;0.30;0.30;;;20.70;95.70;;;;;;6151232;23;45429;-70
2022/10/27 11:41:38;;;;;;;1.77;0.70;;;20.70;95.70;;;;;;6151743;23;45349;-70
2022/10/27 11:44:15;;;;;;;1.98;0.50;;;20.70;95.60;;;;;;6151440;23;46123;-70
2022/10/27 11:46:45;;;;;;;0.77;0.47;;;20.70;95.60;;;;;;6151650;23;45281;-70
2022/10/27 11:49:20;;;;;;;1.02;0.57;;;20.70;95.50;;;;;;6152187;23;45369;-70
2022/10/27 11:51:55;;;;;;;0.70;0.43;;;20.70;95.60;;;;;;6151616;23;45409;-70
2022/10/27 11:54:22;;;;;;;0.60;0.50;;;20.70;95.50;;;;;;6151750;23;46455;-70
2022/10/27 11:57:00;;;;;;;0.98;0.40;;;20.70;95.50;;;;;;6151313;23;45293;-70
2022/10/27 11:59:38;;;;;;;1.05;0.50;;;20.70;95.50;;;;;;6150429;23;45238;-69
2022/10/27 12:02:24;;;;;;;1.75;0.60;;;20.70;95.50;;;;;;6151622;23;45365;-70
2022/10/27 12:04:56;;;;;;;0.43;0.40;;;20.70;95.50;;;;;;6152339;23;46860;-70
2022/10/27 12:07:39;;;;;;;1.42;0.50;;;20.70;95.50;;;;;;6152367;23;46069;-70
2022/10/27 12:10:19;;;;;;;0.68;0.40;;;20.70;95.50;;;;;;6153032;23;45246;-70
2022/10/27 12:12:50;;;;;;;1.40;0.55;;;20.70;95.40;;;;;;6153592;23;45343;-70
2022/10/27 12:15:24;;;;;;;0.75;0.65;;;20.70;95.40;;;;;;6152523;23;48196;-70
2022/10/27 12:17:57;;;;;;;0.50;0.40;;;20.70;95.40;;;;;;6152620;23;45361;-70
2022/10/27 12:20:28;;;;;;;0.73;0.50;;;20.70;95.40;;;;;;6152902;23;45290;-70
2022/10/27 12:23:03;;;;;;;1.13;0.60;;;20.70;95.80;;;;;;6153589;23;45321;-70
2022/10/27 12:25:34;;;;;;;2.13;0.60;;;20.70;95.40;;;;;;6153006;23;48253;-70
2022/10/27 12:28:03;;;;;;;1.15;0.50;;;20.70;95.50;;;;;;6152024;23;45267;-70
2022/10/27 12:30:30;;;;;;;1.70;0.50;;;20.70;95.50;;;;;;6153069;23;45225;-70
2022/10/27 12:33:02;;;;;;;2.83;0.70;;;20.70;95.40;;;;;;6152933;23;45519;-70
2022/10/27 12:35:34;;;;;;;0.73;0.65;;;20.70;95.40;;;;;;6153309;23;46021;-69
2022/10/27 12:38:09;;;;;;;0.40;0.40;;;20.80;95.40;;;;;;6151238;23;45358;-70
2022/10/27 12:40:43;;;;;;;0.30;0.30;;;20.80;95.50;;;;;;6151165;23;45328;-70
2022/10/27 12:43:20;;;;;;;1.67;0.43;;;20.70;95.40;;;;;;6154873;23;45509;-69
2022/10/27 12:46:00;;;;;;;1.65;0.55;;;20.70;95.50;;;;;;6152744;23;45300;-70
2022/10/27 12:48:34;;;;;;;1.08;0.80;;;20.70;95.60;;;;;;6152470;23;45238;-70
2022/10/27 12:51:14;;;;;;;0.90;0.60;;;20.70;95.50;;;;;;6152419;23;45335;-70
2022/10/27 12:53:46;;;;;;;1.88;1.10;;;20.70;95.60;;;;;;6153356;23;45291;-69
2022/10/27 12:56:28;;;;;;;3.10;1.33;;;20.70;95.60;;;;;;6152453;23;48016;-68
2022/10/27 12:59:03;;;;;;;4.90;1.05;;;20.70;95.70;;;;;;6151046;23;45243;-69
2022/10/27 13:01:39;;;;;;;3.65;1.10;;;20.70;95.70;;;;;;6153078;23;45265;-70